sensor_id;sensor_type;location;lat;lon;timestamp;P1;durP1;ratioP1;P2;durP2;ratioP2
34643;SDS011;26931;43.498;-1.506;2023-06-19T00:01:20;14.30;;;10.23;;
34643;SDS011;26931;43.498;-1.506;2023-06-19T00:03:46;11.88;;;10.45;;
34643;SDS011;26931;43.498;-1.506;2023-06-19T00:06:12;14.55;;;10.05;;
34643;SDS011;26931;43.498;-1.506;2023-06-19T00:08:38;16.15;;;10.70;;
34643;SDS011;26931;43.498;-1.506;2023-06-19T00:11:07;13.82;;;10.98;;
34643;SDS011;26931;43.498;-1.506;2023-06-19T00:13:33;14.68;;;11.63;;
34643;SDS011;26931;43.498;-1.506;2023-06-19T00:15:59;14.68;;;11.70;;
34643;SDS011;26931;43.498;-1.506;2023-06-19T00:18:26;12.48;;;10.02;;
34643;SDS011;26931;43.498;-1.506;2023-06-19T00:20:53;14.82;;;10.13;;
34643;SDS011;26931;43.498;-1.506;2023-06-19T00:23:21;15.23;;;10.43;;
34643;SDS011;26931;43.498;-1.506;2023-06-19T00:25:48;12.05;;;10.10;;
34643;SDS011;26931;43.498;-1.506;2023-06-19T00:28:14;12.90;;;10.68;;
34643;SDS011;26931;43.498;-1.506;2023-06-19T00:30:44;12.63;;;10.13;;
34643;SDS011;26931;43.498;-1.506;2023-06-19T00:33:10;12.07;;;9.60;;
34643;SDS011;26931;43.498;-1.506;2023-06-19T00:35:36;12.18;;;9.85;;
34643;SDS011;26931;43.498;-1.506;2023-06-19T00:38:02;10.63;;;9.63;;
34643;SDS011;26931;43.498;-1.506;2023-06-19T00:40:31;13.25;;;9.73;;
34643;SDS011;26931;43.498;-1.506;2023-06-19T00:42:58;10.80;;;9.27;;
34643;SDS011;26931;43.498;-1.506;2023-06-19T00:45:24;10.73;;;9.63;;
34643;SDS011;26931;43.498;-1.506;2023-06-19T00:47:51;13.02;;;10.10;;
34643;SDS011;26931;43.498;-1.506;2023-06-19T00:50:21;11.35;;;9.90;;
34643;SDS011;26931;43.498;-1.506;2023-06-19T00:52:48;16.02;;;9.20;;
34643;SDS011;26931;43.498;-1.506;2023-06-19T00:55:14;10.80;;;9.40;;
34643;SDS011;26931;43.498;-1.506;2023-06-19T00:57:41;11.38;;;9.48;;
34643;SDS011;26931;43.498;-1.506;2023-06-19T01:00:08;12.27;;;9.68;;
34643;SDS011;26931;43.498;-1.506;2023-06-19T01:02:36;13.32;;;9.85;;
34643;SDS011;26931;43.498;-1.506;2023-06-19T01:05:03;10.80;;;9.60;;
34643;SDS011;26931;43.498;-1.506;2023-06-19T01:07:52;10.90;;;9.63;;
34643;SDS011;26931;43.498;-1.506;2023-06-19T01:10:26;15.55;;;10.65;;
34643;SDS011;26931;43.498;-1.506;2023-06-19T01:13:39;11.00;;;9.77;;
34643;SDS011;26931;43.498;-1.506;2023-06-19T01:15:56;10.38;;;9.27;;
34643;SDS011;26931;43.498;-1.506;2023-06-19T01:18:23;12.70;;;10.07;;
34643;SDS011;26931;43.498;-1.506;2023-06-19T01:20:52;13.38;;;10.55;;
34643;SDS011;26931;43.498;-1.506;2023-06-19T01:23:18;13.07;;;10.70;;
34643;SDS011;26931;43.498;-1.506;2023-06-19T01:25:44;15.27;;;10.77;;
34643;SDS011;26931;43.498;-1.506;2023-06-19T01:28:10;12.85;;;10.93;;
34643;SDS011;26931;43.498;-1.506;2023-06-19T01:30:40;15.25;;;11.63;;
34643;SDS011;26931;43.498;-1.506;2023-06-19T01:33:12;16.27;;;11.80;;
34643;SDS011;26931;43.498;-1.506;2023-06-19T01:35:42;16.50;;;12.15;;
34643;SDS011;26931;43.498;-1.506;2023-06-19T01:38:10;14.73;;;11.70;;
34643;SDS011;26931;43.498;-1.506;2023-06-19T01:40:38;16.50;;;12.77;;
34643;SDS011;26931;43.498;-1.506;2023-06-19T01:43:06;13.70;;;11.30;;
34643;SDS011;26931;43.498;-1.506;2023-06-19T01:45:33;19.35;;;12.70;;
34643;SDS011;26931;43.498;-1.506;2023-06-19T01:47:59;16.23;;;12.50;;
34643;SDS011;26931;43.498;-1.506;2023-06-19T01:50:26;16.30;;;12.07;;
34643;SDS011;26931;43.498;-1.506;2023-06-19T01:52:52;18.45;;;13.40;;
34643;SDS011;26931;43.498;-1.506;2023-06-19T01:55:18;15.35;;;11.88;;
34643;SDS011;26931;43.498;-1.506;2023-06-19T01:57:45;15.27;;;12.32;;
34643;SDS011;26931;43.498;-1.506;2023-06-19T02:00:11;15.07;;;12.20;;
34643;SDS011;26931;43.498;-1.506;2023-06-19T02:02:38;15.00;;;11.88;;
34643;SDS011;26931;43.498;-1.506;2023-06-19T02:05:04;14.30;;;12.25;;
34643;SDS011;26931;43.498;-1.506;2023-06-19T02:07:30;12.02;;;10.88;;
34643;SDS011;26931;43.498;-1.506;2023-06-19T02:09:56;12.80;;;11.48;;
34643;SDS011;26931;43.498;-1.506;2023-06-19T02:12:23;13.65;;;12.18;;
34643;SDS011;26931;43.498;-1.506;2023-06-19T02:14:49;12.77;;;11.30;;
34643;SDS011;26931;43.498;-1.506;2023-06-19T02:17:15;13.60;;;10.65;;
34643;SDS011;26931;43.498;-1.506;2023-06-19T02:19:41;15.00;;;10.75;;
34643;SDS011;26931;43.498;-1.506;2023-06-19T02:22:08;14.35;;;11.13;;
34643;SDS011;26931;43.498;-1.506;2023-06-19T02:24:34;12.57;;;11.27;;
34643;SDS011;26931;43.498;-1.506;2023-06-19T02:27:02;16.52;;;11.63;;
34643;SDS011;26931;43.498;-1.506;2023-06-19T02:29:28;11.98;;;10.82;;
34643;SDS011;26931;43.498;-1.506;2023-06-19T02:31:55;12.45;;;11.18;;
34643;SDS011;26931;43.498;-1.506;2023-06-19T02:34:21;12.57;;;11.38;;
34643;SDS011;26931;43.498;-1.506;2023-06-19T02:36:49;12.35;;;11.20;;
34643;SDS011;26931;43.498;-1.506;2023-06-19T02:39:15;13.13;;;11.90;;
34643;SDS011;26931;43.498;-1.506;2023-06-19T02:41:42;11.93;;;10.82;;
34643;SDS011;26931;43.498;-1.506;2023-06-19T02:44:11;15.73;;;10.80;;
34643;SDS011;26931;43.498;-1.506;2023-06-19T02:46:37;12.25;;;10.32;;
34643;SDS011;26931;43.498;-1.506;2023-06-19T02:49:03;11.68;;;10.45;;
34643;SDS011;26931;43.498;-1.506;2023-06-19T02:51:29;11.75;;;10.43;;
34643;SDS011;26931;43.498;-1.506;2023-06-19T02:53:55;11.68;;;10.57;;
34643;SDS011;26931;43.498;-1.506;2023-06-19T02:56:21;12.30;;;10.25;;
34643;SDS011;26931;43.498;-1.506;2023-06-19T02:58:50;12.15;;;10.85;;
34643;SDS011;26931;43.498;-1.506;2023-06-19T03:01:16;13.23;;;11.02;;
34643;SDS011;26931;43.498;-1.506;2023-06-19T03:03:42;13.77;;;11.48;;
34643;SDS011;26931;43.498;-1.506;2023-06-19T03:06:08;13.57;;;11.85;;
34643;SDS011;26931;43.498;-1.506;2023-06-19T03:08:34;15.63;;;11.13;;
34643;SDS011;26931;43.498;-1.506;2023-06-19T03:11:01;15.90;;;12.63;;
34643;SDS011;26931;43.498;-1.506;2023-06-19T03:16:16;12.25;;;11.02;;
34643;SDS011;26931;43.498;-1.506;2023-06-19T03:18:42;11.70;;;10.50;;
34643;SDS011;26931;43.498;-1.506;2023-06-19T03:21:15;12.65;;;11.35;;
34643;SDS011;26931;43.498;-1.506;2023-06-19T03:23:44;12.43;;;11.18;;
34643;SDS011;26931;43.498;-1.506;2023-06-19T03:26:10;12.45;;;10.50;;
34643;SDS011;26931;43.498;-1.506;2023-06-19T03:28:37;17.30;;;11.20;;
34643;SDS011;26931;43.498;-1.506;2023-06-19T03:31:06;11.95;;;10.77;;
34643;SDS011;26931;43.498;-1.506;2023-06-19T03:33:32;13.52;;;10.45;;
34643;SDS011;26931;43.498;-1.506;2023-06-19T03:35:58;11.77;;;10.57;;
34643;SDS011;26931;43.498;-1.506;2023-06-19T03:38:24;16.95;;;11.40;;
34643;SDS011;26931;43.498;-1.506;2023-06-19T03:40:50;12.10;;;10.93;;
34643;SDS011;26931;43.498;-1.506;2023-06-19T03:43:16;14.32;;;11.73;;
34643;SDS011;26931;43.498;-1.506;2023-06-19T03:45:42;12.07;;;10.98;;
34643;SDS011;26931;43.498;-1.506;2023-06-19T03:48:08;12.65;;;11.35;;
34643;SDS011;26931;43.498;-1.506;2023-06-19T03:50:37;11.70;;;10.63;;
34643;SDS011;26931;43.498;-1.506;2023-06-19T03:53:03;15.00;;;10.23;;
34643;SDS011;26931;43.498;-1.506;2023-06-19T03:55:29;11.75;;;10.02;;
34643;SDS011;26931;43.498;-1.506;2023-06-19T03:57:58;11.88;;;10.65;;
34643;SDS011;26931;43.498;-1.506;2023-06-19T04:00:27;13.65;;;11.60;;
34643;SDS011;26931;43.498;-1.506;2023-06-19T04:02:53;11.60;;;10.50;;
34643;SDS011;26931;43.498;-1.506;2023-06-19T04:05:19;13.18;;;10.25;;
34643;SDS011;26931;43.498;-1.506;2023-06-19T04:07:45;12.40;;;11.15;;
34643;SDS011;26931;43.498;-1.506;2023-06-19T04:10:11;12.32;;;11.13;;
34643;SDS011;26931;43.498;-1.506;2023-06-19T04:12:38;12.40;;;11.23;;
34643;SDS011;26931;43.498;-1.506;2023-06-19T04:15:07;13.63;;;11.50;;
34643;SDS011;26931;43.498;-1.506;2023-06-19T04:17:34;13.60;;;12.20;;
34643;SDS011;26931;43.498;-1.506;2023-06-19T04:20:00;13.02;;;11.65;;
34643;SDS011;26931;43.498;-1.506;2023-06-19T04:22:26;12.68;;;11.50;;
34643;SDS011;26931;43.498;-1.506;2023-06-19T04:24:52;12.05;;;10.85;;
34643;SDS011;26931;43.498;-1.506;2023-06-19T04:27:18;11.32;;;10.13;;
34643;SDS011;26931;43.498;-1.506;2023-06-19T04:29:47;13.20;;;10.07;;
34643;SDS011;26931;43.498;-1.506;2023-06-19T04:32:13;11.73;;;10.52;;
34643;SDS011;26931;43.498;-1.506;2023-06-19T04:34:39;11.80;;;10.70;;
34643;SDS011;26931;43.498;-1.506;2023-06-19T04:37:06;11.48;;;10.32;;
34643;SDS011;26931;43.498;-1.506;2023-06-19T04:39:32;13.32;;;10.63;;
34643;SDS011;26931;43.498;-1.506;2023-06-19T04:41:59;12.70;;;11.40;;
34643;SDS011;26931;43.498;-1.506;2023-06-19T04:44:25;11.40;;;10.23;;
34643;SDS011;26931;43.498;-1.506;2023-06-19T04:46:51;10.70;;;9.45;;
34643;SDS011;26931;43.498;-1.506;2023-06-19T04:49:26;11.93;;;10.23;;
34643;SDS011;26931;43.498;-1.506;2023-06-19T04:51:58;10.05;;;9.05;;
34643;SDS011;26931;43.498;-1.506;2023-06-19T04:54:24;11.65;;;10.45;;
34643;SDS011;26931;43.498;-1.506;2023-06-19T04:56:51;12.13;;;10.40;;
34643;SDS011;26931;43.498;-1.506;2023-06-19T04:59:18;12.00;;;10.85;;
34643;SDS011;26931;43.498;-1.506;2023-06-19T05:01:44;11.85;;;10.75;;
34643;SDS011;26931;43.498;-1.506;2023-06-19T05:04:10;11.77;;;10.48;;
34643;SDS011;26931;43.498;-1.506;2023-06-19T05:06:37;12.88;;;10.95;;
34643;SDS011;26931;43.498;-1.506;2023-06-19T05:09:03;11.43;;;10.32;;
34643;SDS011;26931;43.498;-1.506;2023-06-19T05:11:30;14.40;;;11.38;;
34643;SDS011;26931;43.498;-1.506;2023-06-19T05:13:56;14.20;;;11.38;;
34643;SDS011;26931;43.498;-1.506;2023-06-19T05:16:22;14.75;;;10.93;;
34643;SDS011;26931;43.498;-1.506;2023-06-19T05:18:49;12.63;;;11.30;;
34643;SDS011;26931;43.498;-1.506;2023-06-19T05:21:16;12.50;;;11.35;;
34643;SDS011;26931;43.498;-1.506;2023-06-19T05:23:42;13.65;;;12.18;;
34643;SDS011;26931;43.498;-1.506;2023-06-19T05:26:08;14.93;;;11.90;;
34643;SDS011;26931;43.498;-1.506;2023-06-19T05:28:34;13.30;;;12.00;;
34643;SDS011;26931;43.498;-1.506;2023-06-19T05:31:00;15.00;;;13.38;;
34643;SDS011;26931;43.498;-1.506;2023-06-19T05:33:26;14.82;;;13.25;;
34643;SDS011;26931;43.498;-1.506;2023-06-19T05:35:52;14.43;;;13.00;;
34643;SDS011;26931;43.498;-1.506;2023-06-19T05:38:19;14.02;;;12.48;;
34643;SDS011;26931;43.498;-1.506;2023-06-19T05:40:45;12.70;;;11.50;;
34643;SDS011;26931;43.498;-1.506;2023-06-19T05:43:11;13.60;;;12.23;;
34643;SDS011;26931;43.498;-1.506;2023-06-19T05:45:37;14.23;;;12.80;;
34643;SDS011;26931;43.498;-1.506;2023-06-19T05:48:03;14.70;;;12.98;;
34643;SDS011;26931;43.498;-1.506;2023-06-19T05:50:29;13.73;;;12.32;;
34643;SDS011;26931;43.498;-1.506;2023-06-19T05:52:55;15.18;;;12.15;;
34643;SDS011;26931;43.498;-1.506;2023-06-19T05:55:21;14.27;;;12.45;;
34643;SDS011;26931;43.498;-1.506;2023-06-19T05:57:50;15.40;;;12.95;;
34643;SDS011;26931;43.498;-1.506;2023-06-19T06:00:16;15.13;;;12.77;;
34643;SDS011;26931;43.498;-1.506;2023-06-19T06:02:42;17.30;;;13.40;;
34643;SDS011;26931;43.498;-1.506;2023-06-19T06:05:08;14.63;;;13.00;;
34643;SDS011;26931;43.498;-1.506;2023-06-19T06:07:34;13.90;;;12.40;;
34643;SDS011;26931;43.498;-1.506;2023-06-19T06:10:01;16.33;;;12.85;;
34643;SDS011;26931;43.498;-1.506;2023-06-19T06:12:27;13.57;;;11.90;;
34643;SDS011;26931;43.498;-1.506;2023-06-19T06:14:52;14.20;;;12.70;;
34643;SDS011;26931;43.498;-1.506;2023-06-19T06:17:18;12.70;;;11.38;;
34643;SDS011;26931;43.498;-1.506;2023-06-19T06:19:44;14.38;;;12.40;;
34643;SDS011;26931;43.498;-1.506;2023-06-19T06:22:10;14.48;;;11.40;;
34643;SDS011;26931;43.498;-1.506;2023-06-19T06:24:35;12.40;;;11.02;;
34643;SDS011;26931;43.498;-1.506;2023-06-19T06:27:01;12.15;;;10.93;;
34643;SDS011;26931;43.498;-1.506;2023-06-19T06:29:28;14.13;;;10.60;;
34643;SDS011;26931;43.498;-1.506;2023-06-19T06:32:02;11.48;;;10.35;;
34643;SDS011;26931;43.498;-1.506;2023-06-19T06:34:30;11.32;;;10.23;;
34643;SDS011;26931;43.498;-1.506;2023-06-19T06:36:55;10.98;;;8.95;;
34643;SDS011;26931;43.498;-1.506;2023-06-19T06:39:21;9.35;;;8.45;;
34643;SDS011;26931;43.498;-1.506;2023-06-19T06:41:47;9.85;;;8.88;;
34643;SDS011;26931;43.498;-1.506;2023-06-19T06:44:12;10.15;;;8.95;;
34643;SDS011;26931;43.498;-1.506;2023-06-19T06:46:38;9.82;;;8.60;;
34643;SDS011;26931;43.498;-1.506;2023-06-19T06:49:04;10.15;;;8.50;;
34643;SDS011;26931;43.498;-1.506;2023-06-19T06:51:29;9.73;;;8.80;;
34643;SDS011;26931;43.498;-1.506;2023-06-19T06:53:55;8.60;;;7.85;;
34643;SDS011;26931;43.498;-1.506;2023-06-19T06:56:21;9.23;;;8.13;;
34643;SDS011;26931;43.498;-1.506;2023-06-19T06:58:47;8.98;;;8.07;;
34643;SDS011;26931;43.498;-1.506;2023-06-19T07:01:13;9.60;;;7.95;;
34643;SDS011;26931;43.498;-1.506;2023-06-19T07:03:38;7.78;;;6.97;;
34643;SDS011;26931;43.498;-1.506;2023-06-19T07:06:04;9.32;;;8.38;;
34643;SDS011;26931;43.498;-1.506;2023-06-19T07:08:30;9.75;;;7.65;;
34643;SDS011;26931;43.498;-1.506;2023-06-19T07:10:56;8.70;;;7.07;;
34643;SDS011;26931;43.498;-1.506;2023-06-19T07:13:22;9.02;;;7.18;;
34643;SDS011;26931;43.498;-1.506;2023-06-19T07:15:48;9.43;;;7.65;;
34643;SDS011;26931;43.498;-1.506;2023-06-19T07:18:14;7.90;;;7.07;;
34643;SDS011;26931;43.498;-1.506;2023-06-19T07:20:40;7.97;;;7.18;;
34643;SDS011;26931;43.498;-1.506;2023-06-19T07:23:05;8.93;;;6.50;;
34643;SDS011;26931;43.498;-1.506;2023-06-19T07:25:31;7.65;;;6.95;;
34643;SDS011;26931;43.498;-1.506;2023-06-19T07:27:59;10.85;;;7.70;;
34643;SDS011;26931;43.498;-1.506;2023-06-19T07:30:25;8.43;;;7.00;;
34643;SDS011;26931;43.498;-1.506;2023-06-19T07:32:51;8.63;;;6.65;;
34643;SDS011;26931;43.498;-1.506;2023-06-19T07:35:17;7.43;;;6.72;;
34643;SDS011;26931;43.498;-1.506;2023-06-19T07:37:43;9.75;;;6.43;;
34643;SDS011;26931;43.498;-1.506;2023-06-19T07:40:09;6.63;;;6.03;;
34643;SDS011;26931;43.498;-1.506;2023-06-19T07:42:35;6.57;;;5.72;;
34643;SDS011;26931;43.498;-1.506;2023-06-19T07:45:01;8.50;;;6.05;;
34643;SDS011;26931;43.498;-1.506;2023-06-19T07:47:27;9.80;;;6.50;;
34643;SDS011;26931;43.498;-1.506;2023-06-19T07:49:53;6.80;;;6.20;;
34643;SDS011;26931;43.498;-1.506;2023-06-19T07:52:18;6.95;;;6.05;;
34643;SDS011;26931;43.498;-1.506;2023-06-19T07:54:54;8.48;;;6.45;;
34643;SDS011;26931;43.498;-1.506;2023-06-19T07:57:21;7.25;;;6.38;;
34643;SDS011;26931;43.498;-1.506;2023-06-19T07:59:48;8.55;;;6.28;;
34643;SDS011;26931;43.498;-1.506;2023-06-19T08:02:14;7.05;;;6.35;;
34643;SDS011;26931;43.498;-1.506;2023-06-19T08:04:40;7.65;;;6.68;;
34643;SDS011;26931;43.498;-1.506;2023-06-19T08:07:06;11.93;;;6.28;;
34643;SDS011;26931;43.498;-1.506;2023-06-19T08:09:32;9.82;;;6.53;;
34643;SDS011;26931;43.498;-1.506;2023-06-19T08:11:58;6.60;;;6.00;;
34643;SDS011;26931;43.498;-1.506;2023-06-19T08:14:24;6.45;;;5.85;;
34643;SDS011;26931;43.498;-1.506;2023-06-19T08:16:49;6.72;;;6.07;;
34643;SDS011;26931;43.498;-1.506;2023-06-19T08:19:15;7.65;;;6.30;;
34643;SDS011;26931;43.498;-1.506;2023-06-19T08:21:41;7.25;;;6.00;;
34643;SDS011;26931;43.498;-1.506;2023-06-19T08:24:07;8.30;;;5.97;;
34643;SDS011;26931;43.498;-1.506;2023-06-19T08:26:32;8.07;;;6.30;;
34643;SDS011;26931;43.498;-1.506;2023-06-19T08:28:58;6.55;;;5.80;;
34643;SDS011;26931;43.498;-1.506;2023-06-19T08:31:24;6.75;;;6.15;;
34643;SDS011;26931;43.498;-1.506;2023-06-19T08:33:55;6.65;;;6.03;;
34643;SDS011;26931;43.498;-1.506;2023-06-19T08:36:22;9.68;;;6.75;;
34643;SDS011;26931;43.498;-1.506;2023-06-19T08:38:47;7.10;;;6.45;;
34643;SDS011;26931;43.498;-1.506;2023-06-19T08:41:17;8.15;;;6.45;;
34643;SDS011;26931;43.498;-1.506;2023-06-19T08:43:45;9.30;;;6.90;;
34643;SDS011;26931;43.498;-1.506;2023-06-19T08:46:14;7.00;;;6.32;;
34643;SDS011;26931;43.498;-1.506;2023-06-19T08:48:41;9.90;;;6.28;;
34643;SDS011;26931;43.498;-1.506;2023-06-19T08:51:07;6.50;;;5.90;;
34643;SDS011;26931;43.498;-1.506;2023-06-19T08:53:35;6.50;;;5.80;;
34643;SDS011;26931;43.498;-1.506;2023-06-19T08:56:02;6.45;;;5.60;;
34643;SDS011;26931;43.498;-1.506;2023-06-19T08:58:28;6.47;;;5.95;;
34643;SDS011;26931;43.498;-1.506;2023-06-19T09:00:54;8.85;;;5.78;;
34643;SDS011;26931;43.498;-1.506;2023-06-19T09:03:23;7.93;;;6.13;;
34643;SDS011;26931;43.498;-1.506;2023-06-19T09:05:48;8.32;;;6.18;;
34643;SDS011;26931;43.498;-1.506;2023-06-19T09:08:15;10.15;;;6.22;;
34643;SDS011;26931;43.498;-1.506;2023-06-19T09:10:42;6.40;;;5.75;;
34643;SDS011;26931;43.498;-1.506;2023-06-19T09:13:08;14.10;;;5.60;;
34643;SDS011;26931;43.498;-1.506;2023-06-19T09:15:35;9.07;;;5.43;;
34643;SDS011;26931;43.498;-1.506;2023-06-19T09:18:02;6.13;;;5.53;;
34643;SDS011;26931;43.498;-1.506;2023-06-19T09:23:11;5.97;;;5.10;;
34643;SDS011;26931;43.498;-1.506;2023-06-19T09:25:45;5.78;;;5.07;;
34643;SDS011;26931;43.498;-1.506;2023-06-19T09:28:24;6.45;;;5.93;;
34643;SDS011;26931;43.498;-1.506;2023-06-19T09:30:55;5.95;;;5.35;;
34643;SDS011;26931;43.498;-1.506;2023-06-19T09:33:26;6.20;;;5.70;;
34643;SDS011;26931;43.498;-1.506;2023-06-19T09:35:55;5.78;;;5.30;;
34643;SDS011;26931;43.498;-1.506;2023-06-19T09:38:26;6.78;;;6.15;;
34643;SDS011;26931;43.498;-1.506;2023-06-19T09:40:53;7.32;;;5.47;;
34643;SDS011;26931;43.498;-1.506;2023-06-19T09:43:25;6.72;;;5.78;;
34643;SDS011;26931;43.498;-1.506;2023-06-19T09:45:58;6.22;;;5.72;;
34643;SDS011;26931;43.498;-1.506;2023-06-19T09:48:28;6.18;;;5.38;;
34643;SDS011;26931;43.498;-1.506;2023-06-19T09:51:07;7.90;;;5.57;;
34643;SDS011;26931;43.498;-1.506;2023-06-19T09:53:40;12.40;;;5.30;;
34643;SDS011;26931;43.498;-1.506;2023-06-19T09:56:08;6.13;;;5.53;;
34643;SDS011;26931;43.498;-1.506;2023-06-19T09:58:35;10.50;;;5.43;;
34643;SDS011;26931;43.498;-1.506;2023-06-19T10:01:03;6.57;;;5.53;;
34643;SDS011;26931;43.498;-1.506;2023-06-19T10:03:30;6.57;;;5.85;;
34643;SDS011;26931;43.498;-1.506;2023-06-19T10:06:00;5.72;;;5.22;;
34643;SDS011;26931;43.498;-1.506;2023-06-19T10:08:27;5.60;;;5.03;;
34643;SDS011;26931;43.498;-1.506;2023-06-19T10:10:56;6.18;;;5.45;;
34643;SDS011;26931;43.498;-1.506;2023-06-19T10:13:30;5.90;;;5.30;;
34643;SDS011;26931;43.498;-1.506;2023-06-19T10:15:58;6.38;;;5.13;;
34643;SDS011;26931;43.498;-1.506;2023-06-19T10:18:24;6.78;;;5.55;;
34643;SDS011;26931;43.498;-1.506;2023-06-19T10:20:51;7.15;;;5.25;;
34643;SDS011;26931;43.498;-1.506;2023-06-19T10:23:19;5.28;;;4.68;;
34643;SDS011;26931;43.498;-1.506;2023-06-19T10:25:54;5.60;;;5.10;;
34643;SDS011;26931;43.498;-1.506;2023-06-19T10:28:28;5.18;;;4.68;;
34643;SDS011;26931;43.498;-1.506;2023-06-19T10:30:58;6.90;;;5.20;;
34643;SDS011;26931;43.498;-1.506;2023-06-19T10:33:29;5.22;;;4.72;;
34643;SDS011;26931;43.498;-1.506;2023-06-19T10:36:00;5.60;;;4.85;;
34643;SDS011;26931;43.498;-1.506;2023-06-19T10:38:27;4.75;;;4.35;;
34643;SDS011;26931;43.498;-1.506;2023-06-19T10:40:53;5.65;;;4.53;;
34643;SDS011;26931;43.498;-1.506;2023-06-19T10:43:22;4.60;;;4.18;;
34643;SDS011;26931;43.498;-1.506;2023-06-19T10:45:50;6.43;;;4.00;;
34643;SDS011;26931;43.498;-1.506;2023-06-19T10:48:20;6.63;;;4.15;;
34643;SDS011;26931;43.498;-1.506;2023-06-19T10:50:47;4.30;;;3.90;;
34643;SDS011;26931;43.498;-1.506;2023-06-19T10:53:26;5.93;;;4.18;;
34643;SDS011;26931;43.498;-1.506;2023-06-19T10:55:54;5.70;;;4.45;;
34643;SDS011;26931;43.498;-1.506;2023-06-19T10:58:24;4.53;;;4.13;;
34643;SDS011;26931;43.498;-1.506;2023-06-19T11:00:50;5.88;;;3.90;;
34643;SDS011;26931;43.498;-1.506;2023-06-19T11:03:16;4.70;;;4.20;;
34643;SDS011;26931;43.498;-1.506;2023-06-19T11:05:45;4.90;;;4.05;;
34643;SDS011;26931;43.498;-1.506;2023-06-19T11:08:17;5.55;;;3.90;;
34643;SDS011;26931;43.498;-1.506;2023-06-19T11:10:47;5.80;;;4.30;;
34643;SDS011;26931;43.498;-1.506;2023-06-19T11:13:17;8.48;;;4.13;;
34643;SDS011;26931;43.498;-1.506;2023-06-19T11:15:44;5.57;;;3.75;;
34643;SDS011;26931;43.498;-1.506;2023-06-19T11:18:11;5.10;;;4.20;;
34643;SDS011;26931;43.498;-1.506;2023-06-19T11:20:43;5.40;;;4.50;;
34643;SDS011;26931;43.498;-1.506;2023-06-19T11:23:09;4.95;;;3.88;;
34643;SDS011;26931;43.498;-1.506;2023-06-19T11:25:36;6.70;;;4.13;;
34643;SDS011;26931;43.498;-1.506;2023-06-19T11:28:13;4.90;;;4.10;;
34643;SDS011;26931;43.498;-1.506;2023-06-19T11:30:40;4.55;;;4.15;;
34643;SDS011;26931;43.498;-1.506;2023-06-19T11:33:16;4.78;;;4.28;;
34643;SDS011;26931;43.498;-1.506;2023-06-19T11:35:50;4.18;;;3.72;;
34643;SDS011;26931;43.498;-1.506;2023-06-19T11:38:21;4.95;;;4.15;;
34643;SDS011;26931;43.498;-1.506;2023-06-19T11:40:48;5.50;;;3.88;;
34643;SDS011;26931;43.498;-1.506;2023-06-19T11:45:50;4.60;;;4.20;;
34643;SDS011;26931;43.498;-1.506;2023-06-19T11:48:23;5.45;;;3.92;;
34643;SDS011;26931;43.498;-1.506;2023-06-19T11:50:50;9.68;;;4.53;;
34643;SDS011;26931;43.498;-1.506;2023-06-19T11:53:16;5.15;;;4.28;;
34643;SDS011;26931;43.498;-1.506;2023-06-19T11:55:43;4.63;;;3.97;;
34643;SDS011;26931;43.498;-1.506;2023-06-19T11:58:09;4.93;;;3.78;;
34643;SDS011;26931;43.498;-1.506;2023-06-19T12:00:38;6.05;;;4.30;;
34643;SDS011;26931;43.498;-1.506;2023-06-19T12:03:04;5.82;;;4.32;;
34643;SDS011;26931;43.498;-1.506;2023-06-19T12:05:30;4.85;;;3.92;;
34643;SDS011;26931;43.498;-1.506;2023-06-19T12:07:56;4.38;;;4.00;;
34643;SDS011;26931;43.498;-1.506;2023-06-19T12:10:22;5.82;;;4.28;;
34643;SDS011;26931;43.498;-1.506;2023-06-19T12:12:47;6.85;;;4.90;;
34643;SDS011;26931;43.498;-1.506;2023-06-19T12:15:13;5.35;;;4.53;;
34643;SDS011;26931;43.498;-1.506;2023-06-19T12:17:42;4.72;;;4.32;;
34643;SDS011;26931;43.498;-1.506;2023-06-19T12:20:08;4.80;;;4.40;;
34643;SDS011;26931;43.498;-1.506;2023-06-19T12:22:38;5.25;;;4.07;;
34643;SDS011;26931;43.498;-1.506;2023-06-19T12:25:05;6.72;;;3.85;;
34643;SDS011;26931;43.498;-1.506;2023-06-19T12:27:31;4.75;;;4.28;;
34643;SDS011;26931;43.498;-1.506;2023-06-19T12:29:57;4.63;;;4.10;;
34643;SDS011;26931;43.498;-1.506;2023-06-19T12:32:23;7.30;;;4.25;;
34643;SDS011;26931;43.498;-1.506;2023-06-19T12:34:49;4.50;;;4.15;;
34643;SDS011;26931;43.498;-1.506;2023-06-19T12:37:19;5.22;;;4.25;;
34643;SDS011;26931;43.498;-1.506;2023-06-19T12:39:45;5.07;;;3.70;;
34643;SDS011;26931;43.498;-1.506;2023-06-19T12:42:15;5.65;;;3.50;;
34643;SDS011;26931;43.498;-1.506;2023-06-19T12:44:41;5.07;;;3.33;;
34643;SDS011;26931;43.498;-1.506;2023-06-19T12:47:07;4.97;;;3.63;;
34643;SDS011;26931;43.498;-1.506;2023-06-19T12:49:33;4.20;;;3.67;;
34643;SDS011;26931;43.498;-1.506;2023-06-19T12:51:59;6.30;;;3.83;;
34643;SDS011;26931;43.498;-1.506;2023-06-19T12:54:25;5.80;;;3.85;;
34643;SDS011;26931;43.498;-1.506;2023-06-19T12:56:52;4.75;;;3.50;;
34643;SDS011;26931;43.498;-1.506;2023-06-19T12:59:18;4.28;;;3.65;;
34643;SDS011;26931;43.498;-1.506;2023-06-19T13:01:44;4.97;;;3.60;;
34643;SDS011;26931;43.498;-1.506;2023-06-19T13:04:11;5.13;;;3.67;;
34643;SDS011;26931;43.498;-1.506;2023-06-19T13:06:37;4.28;;;3.70;;
34643;SDS011;26931;43.498;-1.506;2023-06-19T13:09:05;3.75;;;3.25;;
34643;SDS011;26931;43.498;-1.506;2023-06-19T13:11:31;4.03;;;3.55;;
34643;SDS011;26931;43.498;-1.506;2023-06-19T13:13:59;7.15;;;3.38;;
34643;SDS011;26931;43.498;-1.506;2023-06-19T13:16:25;3.67;;;3.28;;
34643;SDS011;26931;43.498;-1.506;2023-06-19T13:18:51;5.43;;;3.40;;
34643;SDS011;26931;43.498;-1.506;2023-06-19T13:21:17;3.85;;;3.20;;
34643;SDS011;26931;43.498;-1.506;2023-06-19T13:23:43;4.53;;;3.47;;
34643;SDS011;26931;43.498;-1.506;2023-06-19T13:26:09;5.55;;;3.42;;
34643;SDS011;26931;43.498;-1.506;2023-06-19T13:28:35;3.25;;;2.95;;
34643;SDS011;26931;43.498;-1.506;2023-06-19T13:31:02;4.72;;;3.35;;
34643;SDS011;26931;43.498;-1.506;2023-06-19T13:33:28;8.57;;;3.42;;
34643;SDS011;26931;43.498;-1.506;2023-06-19T13:35:54;5.57;;;3.50;;
34643;SDS011;26931;43.498;-1.506;2023-06-19T13:38:19;7.82;;;3.20;;
34643;SDS011;26931;43.498;-1.506;2023-06-19T13:40:46;3.97;;;3.40;;
34643;SDS011;26931;43.498;-1.506;2023-06-19T13:43:12;4.38;;;3.17;;
34643;SDS011;26931;43.498;-1.506;2023-06-19T13:45:38;3.15;;;2.85;;
34643;SDS011;26931;43.498;-1.506;2023-06-19T13:48:04;4.40;;;3.25;;
34643;SDS011;26931;43.498;-1.506;2023-06-19T13:50:30;4.18;;;2.95;;
34643;SDS011;26931;43.498;-1.506;2023-06-19T13:52:57;3.15;;;2.60;;
34643;SDS011;26931;43.498;-1.506;2023-06-19T13:55:24;3.65;;;2.83;;
34643;SDS011;26931;43.498;-1.506;2023-06-19T13:57:49;3.15;;;2.80;;
34643;SDS011;26931;43.498;-1.506;2023-06-19T14:00:16;6.32;;;3.05;;
34643;SDS011;26931;43.498;-1.506;2023-06-19T14:02:42;6.25;;;2.95;;
34643;SDS011;26931;43.498;-1.506;2023-06-19T14:05:08;4.00;;;2.80;;
34643;SDS011;26931;43.498;-1.506;2023-06-19T14:07:35;8.23;;;3.42;;
34643;SDS011;26931;43.498;-1.506;2023-06-19T14:10:02;5.82;;;3.45;;
34643;SDS011;26931;43.498;-1.506;2023-06-19T14:12:29;4.32;;;3.10;;
34643;SDS011;26931;43.498;-1.506;2023-06-19T14:14:57;3.75;;;3.20;;
34643;SDS011;26931;43.498;-1.506;2023-06-19T14:17:23;5.25;;;3.10;;
34643;SDS011;26931;43.498;-1.506;2023-06-19T14:19:49;4.53;;;2.88;;
34643;SDS011;26931;43.498;-1.506;2023-06-19T14:22:18;5.18;;;3.38;;
34643;SDS011;26931;43.498;-1.506;2023-06-19T14:24:44;5.95;;;2.92;;
34643;SDS011;26931;43.498;-1.506;2023-06-19T14:27:10;3.47;;;2.95;;
34643;SDS011;26931;43.498;-1.506;2023-06-19T14:29:35;3.90;;;2.97;;
34643;SDS011;26931;43.498;-1.506;2023-06-19T14:32:01;5.88;;;3.22;;